Time;durP1;ratioP1;P1;durP2;ratioP2;P2;SDS_P1;SDS_P2;PMS_P1;PMS_P2;Temp;Humidity;BMP_temperature;BMP_pressure;BME280_temperature;BME280_humidity;BME280_pressure;Samples;Min_cycle;Max_cycle;Signal;HPM_P1;HPM_P2
2022/11/12 00:01:03;;;;;;;2.63;1.23;;;;;;;;;;5091778;28;20073;-77
2022/11/12 00:03:29;;;;;;;4.85;1.10;;;;;;;;;;5090937;28;20141;-76
2022/11/12 00:05:54;;;;;;;1.40;1.15;;;;;;;;;;5091544;28;20052;-77
2022/11/12 00:08:20;;;;;;;3.53;1.40;;;;;;;;;;5091625;28;20035;-77
2022/11/12 00:10:45;;;;;;;1.15;0.85;;;;;;;;;;5091246;28;20101;-78
2022/11/12 00:13:10;;;;;;;1.77;1.42;;;;;;;;;;5091709;28;20036;-78
2022/11/12 00:15:36;;;;;;;1.40;0.60;;;;;;;;;;5091577;28;20402;-77
2022/11/12 00:18:01;;;;;;;3.03;1.60;;;;;;;;;;5091073;28;20020;-77
2022/11/12 00:20:26;;;;;;;1.38;1.13;;;;;;;;;;5091316;28;20113;-76
2022/11/12 00:22:52;;;;;;;2.40;1.45;;;;;;;;;;5091403;28;20486;-77
2022/11/12 00:25:17;;;;;;;1.63;0.88;;;;;;;;;;5091261;28;20055;-77
2022/11/12 00:27:43;;;;;;;2.88;0.77;;;;;;;;;;5090492;28;20131;-76
2022/11/12 00:30:08;;;;;;;2.13;0.80;;;;;;;;;;5091357;28;20122;-76
2022/11/12 00:32:37;;;;;;;1.15;0.55;;;;;;;;;;5090728;28;20050;-77
2022/11/12 00:35:03;;;;;;;1.42;0.57;;;;;;;;;;5091063;28;20054;-77
2022/11/12 00:37:28;;;;;;;2.75;1.00;;;;;;;;;;5091092;28;20040;-77
2022/11/12 00:39:53;;;;;;;1.92;0.77;;;;;;;;;;5090597;28;20032;-78
2022/11/12 00:42:19;;;;;;;2.70;1.40;;;;;;;;;;5091088;28;20035;-77
2022/11/12 00:44:44;;;;;;;2.35;1.00;;;;;;;;;;5091248;28;20059;-77
2022/11/12 00:47:10;;;;;;;7.88;1.75;;;;;;;;;;5090590;28;20043;-76
2022/11/12 00:49:35;;;;;;;1.73;0.65;;;;;;;;;;5090872;28;20034;-76
2022/11/12 00:52:00;;;;;;;1.45;0.77;;;;;;;;;;5090651;28;20583;-76
2022/11/12 00:54:26;;;;;;;1.02;0.98;;;;;;;;;;5091888;28;20569;-77
2022/11/12 00:56:51;;;;;;;2.03;1.25;;;;;;;;;;5092669;28;20122;-75
2022/11/12 00:59:16;;;;;;;0.80;0.57;;;;;;;;;;5092454;28;20490;-75
2022/11/12 01:01:42;;;;;;;1.77;0.63;;;;;;;;;;5091775;28;20039;-75
2022/11/12 01:04:08;;;;;;;1.15;0.82;;;;;;;;;;5091982;28;20082;-76
2022/11/12 01:06:33;;;;;;;1.38;1.20;;;;;;;;;;5092454;28;20042;-76
2022/11/12 01:08:58;;;;;;;1.70;0.68;;;;;;;;;;5091623;28;20032;-76
2022/11/12 01:11:25;;;;;;;1.10;1.00;;;;;;;;;;5092164;28;20032;-76
2022/11/12 01:14:01;;;;;;;0.68;0.60;;;;;;;;;;5092165;28;20047;-76
2022/11/12 01:16:26;;;;;;;;;;;;;;;;;;5073977;28;20402;-77
2022/11/12 01:18:55;;;;;;;0.73;0.50;;;;;;;;;;5092223;28;19912;-76
2022/11/12 01:21:21;;;;;;;1.05;0.68;;;;;;;;;;5092045;28;20801;-74
2022/11/12 01:23:47;;;;;;;1.15;0.50;;;;;;;;;;5091551;28;20074;-76
2022/11/12 01:26:14;;;;;;;1.17;0.60;;;;;;;;;;5092046;28;20085;-76
2022/11/12 01:28:39;;;;;;;1.15;0.63;;;;;;;;;;5091488;28;20060;-76
2022/11/12 01:31:19;;;;;;;0.88;0.68;;;;;;;;;;5091580;28;20035;-76
2022/11/12 01:33:46;;;;;;;0.80;0.77;;;;;;;;;;5092002;28;20032;-76
2022/11/12 01:36:12;;;;;;;1.67;0.63;;;;;;;;;;5091929;28;20043;-78
2022/11/12 01:38:39;;;;;;;1.23;0.68;;;;;;;;;;5090564;28;20491;-74
2022/11/12 01:41:05;;;;;;;1.85;0.82;;;;;;;;;;5091560;28;20039;-76
2022/11/12 01:43:30;;;;;;;1.13;0.80;;;;;;;;;;5091721;28;20035;-74
2022/11/12 01:45:56;;;;;;;1.00;1.00;;;;;;;;;;5091331;28;20038;-75
2022/11/12 01:48:32;;;;;;;0.50;0.47;;;;;;;;;;5091861;28;20090;-77
2022/11/12 01:50:57;;;;;;;1.13;1.00;;;;;;;;;;5091544;28;20071;-76
2022/11/12 01:53:24;;;;;;;1.38;1.23;;;;;;;;;;5090245;28;20078;-76
2022/11/12 01:55:51;;;;;;;0.55;0.52;;;;;;;;;;5090007;28;20032;-76
2022/11/12 01:58:18;;;;;;;1.38;0.98;;;;;;;;;;5089752;28;20024;-75
2022/11/12 02:00:44;;;;;;;1.85;1.13;;;;;;;;;;5089808;28;20036;-77
2022/11/12 02:03:14;;;;;;;1.33;1.10;;;;;;;;;;5089685;28;20089;-75
2022/11/12 02:05:40;;;;;;;1.33;1.23;;;;;;;;;;5089412;28;20063;-74
2022/11/12 02:08:06;;;;;;;1.33;1.17;;;;;;;;;;5089503;28;20055;-76
2022/11/12 02:10:33;;;;;;;0.68;0.50;;;;;;;;;;5089652;28;20046;-76
2022/11/12 02:15:42;;;;;;;1.15;0.98;;;;;;;;;;5090202;28;20501;-77
2022/11/12 02:18:08;;;;;;;0.82;0.60;;;;;;;;;;5090142;28;20056;-77
2022/11/12 02:20:34;;;;;;;1.42;0.75;;;;;;;;;;5090040;28;20050;-77
2022/11/12 02:23:00;;;;;;;1.52;1.42;;;;;;;;;;5089626;28;20039;-77
2022/11/12 02:25:25;;;;;;;5.40;0.90;;;;;;;;;;5090183;28;20039;-78
2022/11/12 02:27:53;;;;;;;7.50;1.90;;;;;;;;;;5090023;28;20039;-78
2022/11/12 02:30:19;;;;;;;1.98;1.00;;;;;;;;;;5089586;28;20462;-78
2022/11/12 02:32:44;;;;;;;0.73;0.50;;;;;;;;;;5090065;28;20119;-77
2022/11/12 02:35:10;;;;;;;2.05;1.15;;;;;;;;;;5090298;28;20036;-77
2022/11/12 02:37:35;;;;;;;1.08;0.77;;;;;;;;;;5089945;28;20028;-77
2022/11/12 02:40:00;;;;;;;1.63;0.90;;;;;;;;;;5090106;28;20032;-78
2022/11/12 02:42:26;;;;;;;1.10;0.75;;;;;;;;;;5084812;28;20048;-77
2022/11/12 02:44:51;;;;;;;2.60;0.57;;;;;;;;;;5088920;28;20032;-77
2022/11/12 02:47:16;;;;;;;2.08;0.52;;;;;;;;;;5089436;28;20036;-77
2022/11/12 02:49:43;;;;;;;0.45;0.40;;;;;;;;;;5090038;28;20043;-78
2022/11/12 02:52:08;;;;;;;1.17;0.43;;;;;;;;;;5092879;28;20035;-77
2022/11/12 02:54:34;;;;;;;1.60;1.15;;;;;;;;;;5094368;28;20475;-77
2022/11/12 02:56:59;;;;;;;0.68;0.68;;;;;;;;;;5094646;28;20118;-76
2022/11/12 02:59:24;;;;;;;2.42;0.55;;;;;;;;;;5094562;28;20028;-78
2022/11/12 03:01:50;;;;;;;3.40;0.60;;;;;;;;;;5094593;28;20035;-82
2022/11/12 03:04:15;;;;;;;1.52;1.42;;;;;;;;;;5094179;28;20056;-74
2022/11/12 03:06:41;;;;;;;2.42;1.10;;;;;;;;;;5094178;28;20040;-78
2022/11/12 03:09:06;;;;;;;1.85;0.68;;;;;;;;;;5094567;28;20413;-77
2022/11/12 03:11:32;;;;;;;2.88;0.90;;;;;;;;;;5094029;28;20035;-77
2022/11/12 03:13:57;;;;;;;1.80;0.68;;;;;;;;;;5094303;28;20126;-76
2022/11/12 03:16:22;;;;;;;2.28;0.85;;;;;;;;;;5094358;28;20036;-76
2022/11/12 03:18:48;;;;;;;2.78;1.00;;;;;;;;;;5094243;28;20379;-74
2022/11/12 03:21:13;;;;;;;1.02;1.00;;;;;;;;;;5094249;28;20090;-78
2022/11/12 03:23:38;;;;;;;1.13;1.02;;;;;;;;;;5093885;28;20040;-77
2022/11/12 03:26:04;;;;;;;1.73;0.50;;;;;;;;;;5094149;28;20127;-77
2022/11/12 03:28:29;;;;;;;1.02;1.02;;;;;;;;;;5094019;28;20528;-76
2022/11/12 03:30:58;;;;;;;0.88;0.80;;;;;;;;;;5093558;28;20557;-77
2022/11/12 03:33:23;;;;;;;1.83;1.35;;;;;;;;;;5094125;28;20039;-75
2022/11/12 03:35:49;;;;;;;2.22;1.23;;;;;;;;;;5094253;28;20032;-82
2022/11/12 03:38:14;;;;;;;0.95;0.95;;;;;;;;;;5094403;28;20574;-82
2022/11/12 03:40:40;;;;;;;1.20;0.47;;;;;;;;;;5076123;28;20032;-79
2022/11/12 03:43:05;;;;;;;1.73;0.82;;;;;;;;;;5093548;28;20494;-80
2022/11/12 03:45:30;;;;;;;1.20;0.90;;;;;;;;;;5093471;28;20028;-75
2022/11/12 03:48:02;;;;;;;0.93;0.93;;;;;;;;;;5093716;28;20036;-78
2022/11/12 03:50:28;;;;;;;2.70;1.20;;;;;;;;;;5093817;28;20040;-76
2022/11/12 03:52:57;;;;;;;0.85;0.47;;;;;;;;;;5092827;28;20166;-75
2022/11/12 03:55:24;;;;;;;1.27;1.00;;;;;;;;;;5091838;28;20074;-75
2022/11/12 03:57:50;;;;;;;3.08;0.90;;;;;;;;;;5091916;28;20036;-74
2022/11/12 04:00:16;;;;;;;1.83;0.63;;;;;;;;;;5091480;28;20051;-79
2022/11/12 04:02:41;;;;;;;2.03;1.02;;;;;;;;;;5091182;28;20024;-81
2022/11/12 04:10:42;;;;;;;2.58;0.30;;;;;;;;;;5072435;28;20514;-76
2022/11/12 04:13:26;;;;;;;16.75;2.70;;;;;;;;;;5079920;28;20028;-74
2022/11/12 04:21:49;;;;;;;3.10;1.35;;;;;;;;;;5071774;28;20039;-75
2022/11/12 04:26:21;;;;;;;0.57;0.45;;;;;;;;;;5069372;28;20047;-76
2022/11/12 04:26:53;;;;;;;1.67;0.95;;;;;;;;;;5071302;28;20033;-75
2022/11/12 04:32:02;;;;;;;1.08;0.30;;;;;;;;;;5071780;28;20785;-75
2022/11/12 04:34:28;;;;;;;3.80;1.00;;;;;;;;;;5071403;28;20032;-75
2022/11/12 04:36:53;;;;;;;0.82;0.63;;;;;;;;;;5077862;28;20085;-75
2022/11/12 04:39:18;;;;;;;1.83;0.63;;;;;;;;;;5073436;28;20035;-75
2022/11/12 04:47:12;;;;;;;1.02;0.98;;;;;;;;;;5091420;28;20046;-75
2022/11/12 04:49:37;;;;;;;0.93;0.93;;;;;;;;;;5091144;28;20126;-75
2022/11/12 04:52:05;;;;;;;0.65;0.65;;;;;;;;;;5091008;28;20425;-76
2022/11/12 04:54:31;;;;;;;0.38;0.38;;;;;;;;;;5074635;28;20119;-75
2022/11/12 04:56:57;;;;;;;0.98;0.52;;;;;;;;;;5093055;28;20064;-75
2022/11/12 04:59:22;;;;;;;1.10;1.10;;;;;;;;;;5092255;28;20024;-75
2022/11/12 05:01:47;;;;;;;0.40;0.40;;;;;;;;;;5092812;28;20043;-75
2022/11/12 05:04:13;;;;;;;0.63;0.20;;;;;;;;;;5092182;28;20418;-75
2022/11/12 05:06:50;;;;;;;0.65;0.35;;;;;;;;;;5074239;28;20036;-75
2022/11/12 05:09:16;;;;;;;0.60;0.40;;;;;;;;;;5092533;28;20056;-75
2022/11/12 05:11:42;;;;;;;1.15;1.05;;;;;;;;;;5092611;28;20074;-75
2022/11/12 05:14:07;;;;;;;0.88;0.88;;;;;;;;;;5092127;28;20498;-74
2022/11/12 05:16:32;;;;;;;1.02;0.98;;;;;;;;;;5092525;28;20031;-77
2022/11/12 05:18:58;;;;;;;0.55;0.30;;;;;;;;;;5092614;28;20376;-76
2022/11/12 05:24:07;;;;;;;0.38;0.30;;;;;;;;;;5092592;28;20406;-76
2022/11/12 05:26:32;;;;;;;0.32;0.32;;;;;;;;;;5092374;28;20032;-76
2022/11/12 05:28:58;;;;;;;0.20;0.20;;;;;;;;;;5091927;28;20070;-75
2022/11/12 05:31:23;;;;;;;0.50;0.50;;;;;;;;;;5092214;28;20114;-75
2022/11/12 05:33:48;;;;;;;1.55;0.88;;;;;;;;;;5092425;28;20031;-75
2022/11/12 05:36:14;;;;;;;0.93;0.93;;;;;;;;;;5091981;28;20027;-75
2022/11/12 05:38:39;;;;;;;0.93;0.80;;;;;;;;;;5092196;28;20508;-76
2022/11/12 05:41:04;;;;;;;1.17;0.82;;;;;;;;;;5092246;28;20038;-75
2022/11/12 05:43:30;;;;;;;0.82;0.82;;;;;;;;;;5091848;28;20039;-75
2022/11/12 05:45:55;;;;;;;0.93;0.93;;;;;;;;;;5092261;28;20173;-77
2022/11/12 05:48:20;;;;;;;0.80;0.80;;;;;;;;;;5092265;28;20036;-76
2022/11/12 05:50:50;;;;;;;1.05;1.05;;;;;;;;;;5091682;28;20482;-77
2022/11/12 05:53:15;;;;;;;1.05;0.95;;;;;;;;;;5091555;28;20081;-76
2022/11/12 05:55:40;;;;;;;0.85;0.85;;;;;;;;;;5090448;28;20031;-76
2022/11/12 05:58:06;;;;;;;1.30;1.00;;;;;;;;;;5090066;28;20031;-76
2022/11/12 06:00:37;;;;;;;1.10;0.30;;;;;;;;;;5090601;28;20068;-77
2022/11/12 06:03:03;;;;;;;0.70;0.70;;;;;;;;;;5090009;28;20024;-75
2022/11/12 06:05:29;;;;;;;0.77;0.77;;;;;;;;;;5089870;28;20122;-74
2022/11/12 06:07:54;;;;;;;1.08;1.08;;;;;;;;;;5090443;28;20973;-74
2022/11/12 06:10:19;;;;;;;0.17;0.17;;;;;;;;;;5090184;28;20445;-74
2022/11/12 06:12:45;;;;;;;0.90;0.85;;;;;;;;;;5089741;28;20027;-74
2022/11/12 06:15:10;;;;;;;0.95;0.95;;;;;;;;;;5090143;28;20036;-74
2022/11/12 06:17:35;;;;;;;0.82;0.82;;;;;;;;;;5090349;28;20071;-74
2022/11/12 06:20:01;;;;;;;0.95;0.95;;;;;;;;;;5089804;28;20058;-74
2022/11/12 06:22:26;;;;;;;1.38;0.85;;;;;;;;;;5090180;28;20497;-74
2022/11/12 06:24:51;;;;;;;0.30;0.30;;;;;;;;;;5091430;28;20031;-74
2022/11/12 06:27:17;;;;;;;0.88;0.88;;;;;;;;;;5093692;28;20119;-74
2022/11/12 06:29:42;;;;;;;0.95;0.95;;;;;;;;;;5093959;28;20028;-76
2022/11/12 06:32:07;;;;;;;0.80;0.80;;;;;;;;;;5094099;28;20066;-75
2022/11/12 06:34:33;;;;;;;0.85;0.75;;;;;;;;;;5093635;28;20039;-75
2022/11/12 06:36:59;;;;;;;1.85;0.82;;;;;;;;;;5094174;28;20032;-75
2022/11/12 06:39:25;;;;;;;0.35;0.35;;;;;;;;;;5094177;28;20051;-75
2022/11/12 06:41:50;;;;;;;0.77;0.77;;;;;;;;;;5093463;28;20032;-75
2022/11/12 06:44:15;;;;;;;1.40;0.38;;;;;;;;;;5093714;28;20028;-75
2022/11/12 06:46:41;;;;;;;0.28;0.28;;;;;;;;;;5093863;28;20168;-75
2022/11/12 06:49:06;;;;;;;0.85;0.35;;;;;;;;;;5093150;28;20032;-75
2022/11/12 06:51:31;;;;;;;0.75;0.75;;;;;;;;;;5093586;28;20111;-75
2022/11/12 06:53:57;;;;;;;1.00;1.00;;;;;;;;;;5094737;28;20066;-75
2022/11/12 06:56:22;;;;;;;0.45;0.40;;;;;;;;;;5079970;28;20025;-75
2022/11/12 06:58:47;;;;;;;0.95;0.95;;;;;;;;;;5083788;28;20107;-76
2022/11/12 07:01:15;;;;;;;0.98;0.95;;;;;;;;;;5093034;28;20035;-77
2022/11/12 07:03:41;;;;;;;0.65;0.65;;;;;;;;;;5092277;28;20035;-75
2022/11/12 07:06:11;;;;;;;0.75;0.70;;;;;;;;;;5092625;28;20093;-78
2022/11/12 07:08:37;;;;;;;4.68;1.00;;;;;;;;;;5092721;28;20043;-78
2022/11/12 07:11:03;;;;;;;2.63;0.40;;;;;;;;;;5092087;28;20028;-76
2022/11/12 07:13:29;;;;;;;2.05;0.80;;;;;;;;;;5093020;28;20089;-76
2022/11/12 07:15:59;;;;;;;3.42;1.20;;;;;;;;;;5092782;28;20085;-76
2022/11/12 07:18:25;;;;;;;2.60;0.52;;;;;;;;;;5092137;28;20024;-76
2022/11/12 07:20:50;;;;;;;1.15;0.60;;;;;;;;;;5092503;28;20856;-76
2022/11/12 07:23:16;;;;;;;1.02;0.85;;;;;;;;;;5092660;28;20032;-76
2022/11/12 07:25:41;;;;;;;1.10;0.85;;;;;;;;;;5092241;28;20578;-76
2022/11/12 07:28:06;;;;;;;1.83;0.55;;;;;;;;;;5074449;28;20035;-76
2022/11/12 07:30:32;;;;;;;2.65;0.40;;;;;;;;;;5092604;28;20410;-76
2022/11/12 07:32:57;;;;;;;0.70;0.40;;;;;;;;;;5091979;28;20465;-76
2022/11/12 07:35:22;;;;;;;2.95;1.38;;;;;;;;;;5092109;28;20089;-76
2022/11/12 07:37:48;;;;;;;1.08;0.98;;;;;;;;;;5092303;28;20537;-76
2022/11/12 07:40:14;;;;;;;3.60;1.10;;;;;;;;;;5092187;28;20039;-76
2022/11/12 07:42:40;;;;;;;1.48;0.60;;;;;;;;;;5091803;28;20120;-76
2022/11/12 07:45:06;;;;;;;4.22;0.40;;;;;;;;;;5091893;28;20097;-76
2022/11/12 07:47:31;;;;;;;1.65;1.15;;;;;;;;;;5092086;28;20024;-76
2022/11/12 07:49:56;;;;;;;0.73;0.70;;;;;;;;;;5091548;28;20050;-76
2022/11/12 07:52:22;;;;;;;0.90;0.90;;;;;;;;;;5090038;28;20035;-76
2022/11/12 07:54:47;;;;;;;1.02;1.02;;;;;;;;;;5087647;28;20114;-76
2022/11/12 07:57:13;;;;;;;0.93;0.88;;;;;;;;;;5093655;28;20070;-76
2022/11/12 07:59:38;;;;;;;1.80;0.52;;;;;;;;;;5094087;28;20732;-76
2022/11/12 08:02:04;;;;;;;1.02;1.02;;;;;;;;;;5093864;28;20081;-76
2022/11/12 08:04:29;;;;;;;1.00;0.93;;;;;;;;;;5093301;28;20079;-76
2022/11/12 08:06:55;;;;;;;0.40;0.40;;;;;;;;;;5093935;28;20528;-76
2022/11/12 08:09:20;;;;;;;1.10;1.10;;;;;;;;;;5093769;28;20027;-76
2022/11/12 08:11:45;;;;;;;0.80;0.57;;;;;;;;;;5093156;28;20036;-76
2022/11/12 08:14:11;;;;;;;1.33;1.23;;;;;;;;;;5093931;28;20036;-76
2022/11/12 08:16:36;;;;;;;1.20;0.55;;;;;;;;;;5093790;28;20027;-77
2022/11/12 08:19:02;;;;;;;1.80;0.60;;;;;;;;;;5093291;28;20031;-76
2022/11/12 08:21:27;;;;;;;1.85;1.02;;;;;;;;;;5093748;28;20039;-76
2022/11/12 08:23:52;;;;;;;1.52;0.40;;;;;;;;;;5093624;28;20390;-76
2022/11/12 08:26:18;;;;;;;0.90;0.90;;;;;;;;;;5093231;28;20494;-76
2022/11/12 08:28:44;;;;;;;1.20;1.13;;;;;;;;;;5093434;28;20478;-76
2022/11/12 08:31:11;;;;;;;1.52;0.40;;;;;;;;;;5093350;28;20474;-76
2022/11/12 08:33:36;;;;;;;0.47;0.47;;;;;;;;;;5093019;28;20064;-76
2022/11/12 08:36:05;;;;;;;1.45;1.20;;;;;;;;;;5093634;28;20067;-76
2022/11/12 08:38:31;;;;;;;1.17;1.10;;;;;;;;;;5093085;28;20060;-75
2022/11/12 08:41:00;;;;;;;1.25;1.13;;;;;;;;;;5093000;28;20070;-76
2022/11/12 08:43:25;;;;;;;0.60;0.55;;;;;;;;;;5093193;28;20036;-76
2022/11/12 08:45:51;;;;;;;1.38;0.50;;;;;;;;;;5075162;28;20414;-76
2022/11/12 08:48:16;;;;;;;2.33;1.45;;;;;;;;;;5092314;28;20035;-76
2022/11/12 08:50:42;;;;;;;1.40;0.93;;;;;;;;;;5093289;28;20532;-76
2022/11/12 08:53:12;;;;;;;1.20;1.15;;;;;;;;;;5092668;28;20047;-76
2022/11/12 08:55:37;;;;;;;3.35;1.17;;;;;;;;;;5091190;28;20032;-76
2022/11/12 08:58:03;;;;;;;1.52;1.17;;;;;;;;;;5086530;28;20107;-76
2022/11/12 09:00:33;;;;;;;1.10;1.00;;;;;;;;;;5070101;28;20119;-76
2022/11/12 09:02:59;;;;;;;0.60;0.60;;;;;;;;;;5069217;28;20044;-76
2022/11/12 09:05:24;;;;;;;1.85;0.60;;;;;;;;;;5085205;28;20575;-76
2022/11/12 09:08:00;;;;;;;2.20;1.40;;;;;;;;;;5091003;28;20040;-76
2022/11/12 09:10:25;;;;;;;1.17;1.08;;;;;;;;;;5090657;28;20509;-76
2022/11/12 09:12:51;;;;;;;1.10;1.02;;;;;;;;;;5091001;28;20032;-76
2022/11/12 09:15:17;;;;;;;1.30;0.45;;;;;;;;;;5090833;28;20379;-76
2022/11/12 09:17:42;;;;;;;1.73;0.95;;;;;;;;;;5090730;28;20036;-76
2022/11/12 09:20:08;;;;;;;1.45;1.08;;;;;;;;;;5090960;28;20047;-76
2022/11/12 09:22:33;;;;;;;2.08;1.30;;;;;;;;;;5075943;28;20033;-76
2022/11/12 09:24:59;;;;;;;0.63;0.63;;;;;;;;;;5048042;28;20062;-76
2022/11/12 09:27:27;;;;;;;1.92;1.05;;;;;;;;;;5048730;28;20036;-76
2022/11/12 09:29:53;;;;;;;1.60;1.15;;;;;;;;;;5048518;28;20033;-76
2022/11/12 09:32:18;;;;;;;2.13;0.70;;;;;;;;;;5057161;28;20521;-76
2022/11/12 09:34:44;;;;;;;0.43;0.40;;;;;;;;;;5068194;28;20483;-76
2022/11/12 09:37:09;;;;;;;1.27;1.17;;;;;;;;;;5068396;28;20028;-76
2022/11/12 09:39:34;;;;;;;1.27;1.15;;;;;;;;;;5068141;28;20024;-76
2022/11/12 09:42:05;;;;;;;2.28;1.02;;;;;;;;;;5068363;28;20040;-76
2022/11/12 09:44:31;;;;;;;1.80;1.13;;;;;;;;;;5050414;28;20036;-76
2022/11/12 09:47:01;;;;;;;0.40;0.30;;;;;;;;;;5067599;28;20392;-76
2022/11/12 09:49:56;;;;;;;1.63;1.13;;;;;;;;;;5068182;28;20083;-76
2022/11/12 09:52:27;;;;;;;1.17;0.70;;;;;;;;;;5068380;28;20499;-76
2022/11/12 09:55:06;;;;;;;0.75;0.70;;;;;;;;;;5069446;28;20036;-76
2022/11/12 09:57:32;;;;;;;1.08;1.08;;;;;;;;;;5069715;28;20044;-76
2022/11/12 09:59:58;;;;;;;0.98;0.65;;;;;;;;;;5071027;28;20036;-76
2022/11/12 10:02:30;;;;;;;1.02;0.80;;;;;;;;;;5073393;28;20037;-76
2022/11/12 10:05:08;;;;;;;1.58;1.23;;;;;;;;;;5090299;28;20138;-76
2022/11/12 10:07:41;;;;;;;1.35;1.25;;;;;;;;;;5096352;28;20058;-76
2022/11/12 10:10:46;;;;;;;0.80;0.77;;;;;;;;;;5113897;28;20119;-76
2022/11/12 10:13:31;;;;;;;0.60;0.57;;;;;;;;;;5113673;28;20067;-76
2022/11/12 10:19:39;;;;;;;1.17;0.77;;;;;;;;;;5011366;28;20033;-77
2022/11/12 10:22:21;;;;;;;1.27;1.17;;;;;;;;;;5010994;28;20044;-76
2022/11/12 10:24:47;;;;;;;1.45;1.25;;;;;;;;;;5010684;28;20651;-76
2022/11/12 10:27:17;;;;;;;1.10;0.63;;;;;;;;;;5011310;28;20077;-75
2022/11/12 10:29:45;;;;;;;1.33;1.02;;;;;;;;;;5011050;28;20038;-75
2022/11/12 10:32:13;;;;;;;0.98;0.50;;;;;;;;;;5010868;28;20057;-76
2022/11/12 10:34:39;;;;;;;2.20;1.55;;;;;;;;;;4994485;28;20052;-75
2022/11/12 10:37:06;;;;;;;0.88;0.73;;;;;;;;;;5010964;28;20037;-75
2022/11/12 10:39:36;;;;;;;0.98;0.60;;;;;;;;;;5010871;28;20052;-75
2022/11/12 10:42:03;;;;;;;1.00;0.50;;;;;;;;;;5011262;28;20488;-75
2022/11/12 10:44:28;;;;;;;1.13;0.60;;;;;;;;;;5010626;28;20041;-75
2022/11/12 10:47:14;;;;;;;0.82;0.47;;;;;;;;;;5010113;28;20042;-75
2022/11/12 10:49:39;;;;;;;1.60;0.65;;;;;;;;;;5009530;28;20500;-75
2022/11/12 10:52:18;;;;;;;2.45;1.33;;;;;;;;;;5013675;28;20099;-75
2022/11/12 10:54:44;;;;;;;1.30;1.20;;;;;;;;;;5112728;28;20084;-76
2022/11/12 10:57:27;;;;;;;1.08;0.47;;;;;;;;;;5113619;28;20419;-75
2022/11/12 11:00:25;;;;;;;1.02;0.93;;;;;;;;;;5113249;28;20020;-75
2022/11/12 11:02:52;;;;;;;1.40;1.25;;;;;;;;;;5067697;28;20046;-75
2022/11/12 11:05:47;;;;;;;1.73;0.65;;;;;;;;;;5113135;28;20047;-75
2022/11/12 11:08:12;;;;;;;0.68;0.60;;;;;;;;;;5095143;28;20757;-75
2022/11/12 11:10:38;;;;;;;0.88;0.88;;;;;;;;;;5112258;28;20041;-75
2022/11/12 11:13:16;;;;;;;1.00;0.82;;;;;;;;;;5113071;28;20032;-75
2022/11/12 11:15:55;;;;;;;1.13;1.13;;;;;;;;;;5112734;28;20024;-75
2022/11/12 11:18:21;;;;;;;0.60;0.60;;;;;;;;;;5113213;28;20110;-75
2022/11/12 11:20:50;;;;;;;1.63;0.60;;;;;;;;;;5112949;28;20123;-75
2022/11/12 11:23:15;;;;;;;1.02;0.68;;;;;;;;;;5112241;28;20134;-76
2022/11/12 11:25:41;;;;;;;1.15;0.68;;;;;;;;;;5113193;28;20601;-75
2022/11/12 11:28:10;;;;;;;1.50;0.77;;;;;;;;;;5112908;28;20066;-75
2022/11/12 11:30:39;;;;;;;1.27;1.10;;;;;;;;;;5112226;28;20031;-75
2022/11/12 11:33:04;;;;;;;1.33;1.05;;;;;;;;;;5112647;28;20085;-75
2022/11/12 11:35:36;;;;;;;0.98;0.57;;;;;;;;;;5112225;28;20031;-75
2022/11/12 11:38:08;;;;;;;2.90;1.13;;;;;;;;;;5112309;28;20034;-75
2022/11/12 11:40:40;;;;;;;1.30;0.88;;;;;;;;;;5112706;28;20027;-75
2022/11/12 11:43:08;;;;;;;1.35;1.25;;;;;;;;;;5112513;28;20114;-75
2022/11/12 11:45:53;;;;;;;0.73;0.73;;;;;;;;;;5112130;28;20088;-75
2022/11/12 11:48:38;;;;;;;0.88;0.40;;;;;;;;;;5112312;28;20370;-75
2022/11/12 11:51:16;;;;;;;1.15;1.15;;;;;;;;;;5095665;28;20031;-75
2022/11/12 11:53:50;;;;;;;1.23;1.15;;;;;;;;;;5078735;28;20032;-75
2022/11/12 11:56:23;;;;;;;2.03;1.27;;;;;;;;;;5089349;28;20032;-75
2022/11/12 11:58:51;;;;;;;1.98;1.00;;;;;;;;;;5101099;28;20032;-75
2022/11/12 12:01:26;;;;;;;1.67;1.50;;;;;;;;;;5109196;28;20087;-75
2022/11/12 12:03:57;;;;;;;1.30;0.75;;;;;;;;;;5110116;28;20083;-75
2022/11/12 12:06:33;;;;;;;2.30;1.17;;;;;;;;;;5092491;28;20034;-74
2022/11/12 12:09:25;;;;;;;1.92;1.33;;;;;;;;;;5109859;28;20500;-75
2022/11/12 12:12:09;;;;;;;1.13;1.08;;;;;;;;;;5027081;28;20107;-75
2022/11/12 12:14:42;;;;;;;0.55;0.50;;;;;;;;;;5027275;28;20033;-75
2022/11/12 12:17:10;;;;;;;1.13;1.08;;;;;;;;;;5027718;28;20043;-75
2022/11/12 12:19:54;;;;;;;1.80;1.20;;;;;;;;;;5027758;28;20036;-75
2022/11/12 12:22:24;;;;;;;0.80;0.60;;;;;;;;;;5025962;28;20052;-75
2022/11/12 12:24:54;;;;;;;0.50;0.47;;;;;;;;;;5027140;28;20927;-75
2022/11/12 12:27:23;;;;;;;0.80;0.80;;;;;;;;;;5027023;28;20041;-75
2022/11/12 12:29:55;;;;;;;1.25;0.63;;;;;;;;;;5026478;28;20054;-75
2022/11/12 12:32:20;;;;;;;1.10;0.98;;;;;;;;;;5027048;28;20830;-76
2022/11/12 12:34:51;;;;;;;1.55;0.60;;;;;;;;;;5026022;28;20150;-75
2022/11/12 12:37:35;;;;;;;0.77;0.65;;;;;;;;;;5026718;28;20484;-75
2022/11/12 12:40:17;;;;;;;1.00;0.95;;;;;;;;;;5027618;28;20033;-75
2022/11/12 12:42:46;;;;;;;2.10;1.35;;;;;;;;;;5027177;28;20041;-75
2022/11/12 12:45:24;;;;;;;1.25;1.15;;;;;;;;;;5026509;28;20614;-75
2022/11/12 12:47:51;;;;;;;2.17;1.15;;;;;;;;;;5038878;28;20570;-75
2022/11/12 12:50:18;;;;;;;0.85;0.85;;;;;;;;;;5109562;28;20363;-75
2022/11/12 12:53:00;;;;;;;1.00;1.00;;;;;;;;;;5109102;28;20036;-75
2022/11/12 12:55:36;;;;;;;1.15;1.05;;;;;;;;;;5109237;28;20076;-75
2022/11/12 12:58:02;;;;;;;0.90;0.90;;;;;;;;;;5110907;28;20085;-75
2022/11/12 13:00:30;;;;;;;1.02;1.02;;;;;;;;;;5110757;28;20847;-75
2022/11/12 13:02:56;;;;;;;1.25;1.15;;;;;;;;;;5110905;28;20028;-75
2022/11/12 13:05:29;;;;;;;1.27;1.02;;;;;;;;;;5111020;28;20108;-75
2022/11/12 13:07:56;;;;;;;1.65;1.20;;;;;;;;;;5110566;28;20498;-75
2022/11/12 13:11:01;;;;;;;1.30;0.88;;;;;;;;;;5110190;28;20031;-75
2022/11/12 13:13:35;;;;;;;2.17;1.15;;;;;;;;;;5007667;28;20137;-75
2022/11/12 13:16:02;;;;;;;0.88;0.88;;;;;;;;;;5008135;28;20519;-75
2022/11/12 13:18:36;;;;;;;2.10;0.98;;;;;;;;;;5008138;28;20033;-75
2022/11/12 13:21:08;;;;;;;0.93;0.93;;;;;;;;;;5007718;28;20034;-75
2022/11/12 13:24:04;;;;;;;1.20;1.10;;;;;;;;;;5024351;28;20033;-75
2022/11/12 13:26:44;;;;;;;1.50;0.50;;;;;;;;;;5007908;28;20216;-75
2022/11/12 13:29:23;;;;;;;0.25;0.25;;;;;;;;;;5007413;28;20412;-75
2022/11/12 13:32:09;;;;;;;1.35;0.57;;;;;;;;;;5008123;28;20042;-75
2022/11/12 13:34:34;;;;;;;0.90;0.90;;;;;;;;;;5007475;28;20038;-75
2022/11/12 13:37:04;;;;;;;0.75;0.75;;;;;;;;;;4990788;28;20068;-75
2022/11/12 13:39:31;;;;;;;0.68;0.65;;;;;;;;;;5007984;28;20112;-75
2022/11/12 13:44:41;;;;;;;0.82;0.82;;;;;;;;;;5078918;28;20054;-75
2022/11/12 13:47:12;;;;;;;0.93;0.93;;;;;;;;;;5110112;28;20031;-75
2022/11/12 13:49:37;;;;;;;1.00;0.47;;;;;;;;;;5110332;28;20810;-76
2022/11/12 13:52:04;;;;;;;0.88;0.88;;;;;;;;;;5109783;28;20027;-75
2022/11/12 13:54:32;;;;;;;0.85;0.85;;;;;;;;;;5091017;28;20035;-75
2022/11/12 13:57:12;;;;;;;0.85;0.85;;;;;;;;;;5108636;28;20114;-75
2022/11/12 13:59:38;;;;;;;0.43;0.30;;;;;;;;;;5108015;28;20362;-75
2022/11/12 14:02:12;;;;;;;1.13;1.10;;;;;;;;;;5106871;28;20088;-75
2022/11/12 14:04:38;;;;;;;1.08;1.08;;;;;;;;;;5086578;28;20048;-75
2022/11/12 14:07:27;;;;;;;1.05;0.32;;;;;;;;;;5087669;28;20714;-75
2022/11/12 14:10:13;;;;;;;0.47;0.47;;;;;;;;;;5087816;28;20028;-75
2022/11/12 14:12:38;;;;;;;1.17;1.08;;;;;;;;;;5087835;28;20039;-75
2022/11/12 14:15:22;;;;;;;0.85;0.82;;;;;;;;;;5088347;28;20061;-76
2022/11/12 14:18:03;;;;;;;0.38;0.38;;;;;;;;;;5088184;28;20024;-75
2022/11/12 14:20:34;;;;;;;0.90;0.90;;;;;;;;;;5087727;28;20043;-75
2022/11/12 14:23:10;;;;;;;1.08;1.08;;;;;;;;;;5087381;28;20089;-75
2022/11/12 14:25:44;;;;;;;0.20;0.20;;;;;;;;;;5087619;28;20421;-75
2022/11/12 14:28:29;;;;;;;1.30;1.30;;;;;;;;;;5087585;28;20036;-75
2022/11/12 14:30:57;;;;;;;1.17;0.98;;;;;;;;;;5087682;28;20032;-75
2022/11/12 14:33:25;;;;;;;1.20;1.10;;;;;;;;;;5087968;28;20085;-75
2022/11/12 14:35:51;;;;;;;1.27;1.17;;;;;;;;;;5087450;28;20035;-75
2022/11/12 14:38:19;;;;;;;1.23;1.10;;;;;;;;;;5087947;28;20062;-75
2022/11/12 14:40:48;;;;;;;0.20;0.17;;;;;;;;;;5088282;28;20139;-76
2022/11/12 14:43:41;;;;;;;1.10;1.00;;;;;;;;;;5087819;28;20059;-75
2022/11/12 14:46:17;;;;;;;0.80;0.80;;;;;;;;;;5085638;28;20082;-76
2022/11/12 14:48:42;;;;;;;;;;;;;;;;;;5091464;28;20035;-75
2022/11/12 14:51:09;;;;;;;0.40;0.40;;;;;;;;;;5091064;28;19922;-76
2022/11/12 14:53:40;;;;;;;1.30;1.20;;;;;;;;;;5091903;28;20032;-75
2022/11/12 14:56:07;;;;;;;1.25;1.15;;;;;;;;;;5093328;28;20032;-75
2022/11/12 14:58:33;;;;;;;0.28;0.28;;;;;;;;;;5092014;28;20081;-75
2022/11/12 15:01:15;;;;;;;0.90;0.30;;;;;;;;;;5093072;28;20036;-75
2022/11/12 15:03:41;;;;;;;0.60;0.60;;;;;;;;;;5092883;28;20038;-75
2022/11/12 15:06:09;;;;;;;1.02;1.02;;;;;;;;;;5111427;28;20076;-75
2022/11/12 15:08:37;;;;;;;0.45;0.45;;;;;;;;;;5113389;28;20035;-75
2022/11/12 15:11:33;;;;;;;0.32;0.32;;;;;;;;;;5112800;28;20034;-75
2022/11/12 15:14:00;;;;;;;0.85;0.85;;;;;;;;;;5088332;28;20050;-76
2022/11/12 15:16:27;;;;;;;0.82;0.82;;;;;;;;;;5113052;28;20032;-75
2022/11/12 15:19:11;;;;;;;1.10;1.10;;;;;;;;;;5112772;28;20118;-76
2022/11/12 15:21:43;;;;;;;0.93;0.93;;;;;;;;;;5112915;28;20122;-76
2022/11/12 15:24:11;;;;;;;0.68;0.35;;;;;;;;;;5112899;28;20660;-76